createdAt,value
2019-04-11T00:01:40.887Z,151052.95
2019-04-11T00:04:06.100Z,151041.19
2019-04-11T00:06:35.714Z,151043.84
2019-04-11T00:09:08.923Z,151018.98
2019-04-11T00:11:37.760Z,151000.67
2019-04-11T00:14:07.360Z,150994.17
2019-04-11T00:16:35.923Z,150981.06
2019-04-11T00:19:05.235Z,150988.92
2019-04-11T00:21:34.949Z,150974.56
2019-04-11T00:24:03.500Z,150983.72
2019-04-11T00:26:32.744Z,150966.72
2019-04-11T00:29:01.757Z,150962.81
2019-04-11T00:31:30.657Z,150971.97
2019-04-11T00:33:59.475Z,150939.25
2019-04-11T00:36:28.411Z,150958.86
2019-04-11T00:38:57.301Z,150898.80
2019-04-11T00:41:25.998Z,150913.14
2019-04-11T00:43:54.719Z,150880.48
2019-04-11T00:46:24.476Z,150872.64
2019-04-11T00:48:54.381Z,150854.34
2019-04-11T00:51:23.582Z,150849.14
2019-04-11T00:53:52.178Z,150802.09
2019-04-11T00:56:20.701Z,150796.91
2019-04-11T00:58:49.942Z,150799.50
2019-04-11T01:01:19.800Z,150828.25
2019-04-11T01:03:49.471Z,150825.59
2019-04-11T01:06:18.327Z,150794.25
2019-04-11T01:08:46.832Z,150770.75
2019-04-11T01:11:16.111Z,150776.00
2019-04-11T01:13:50.818Z,150762.91
2019-04-11T01:16:33.153Z,150772.06
2019-04-11T01:19:02.617Z,150791.66
2019-04-11T01:21:31.215Z,150769.45
2019-04-11T01:23:59.700Z,150759.02
2019-04-11T01:26:28.368Z,150726.38
2019-04-11T01:28:58.788Z,150725.08
2019-04-11T01:31:29.495Z,150747.27
2019-04-11T01:33:58.160Z,150755.11
2019-04-11T01:36:26.976Z,150726.38
2019-04-11T01:38:57.272Z,150685.89
2019-04-11T01:41:27.432Z,150693.75
2019-04-11T01:44:00.754Z,150692.39
2019-04-11T01:46:26.451Z,150702.84
2019-04-11T01:49:06.113Z,150695.03
2019-04-11T01:51:35.856Z,150708.08
2019-04-11T01:54:05.713Z,150691.09
2019-04-11T01:56:34.333Z,150683.30
2019-04-11T01:59:02.889Z,150684.59
2019-04-11T02:01:37.004Z,150692.39
2019-04-11T02:04:10.272Z,150674.16
2019-04-11T02:06:38.869Z,150700.23
2019-04-11T02:09:11.540Z,150697.64
2019-04-11T02:11:40.453Z,150693.75
2019-04-11T02:14:15.615Z,150697.64
2019-04-11T02:16:41.137Z,150687.19
2019-04-11T02:19:10.174Z,150683.30
2019-04-11T02:21:40.035Z,150661.06
2019-04-11T02:24:10.266Z,150687.19
2019-04-11T02:26:41.405Z,150636.28
2019-04-11T02:29:11.145Z,150607.55
2019-04-11T02:31:39.703Z,150603.66
2019-04-11T02:34:08.664Z,150627.14
2019-04-11T02:36:38.430Z,150593.22
2019-04-11T02:39:16.687Z,150598.41
2019-04-11T02:41:40.267Z,150590.63
2019-04-11T02:44:27.288Z,150541.02
2019-04-11T02:46:47.500Z,150561.91
2019-04-11T02:49:10.193Z,150569.73
2019-04-11T02:51:39.428Z,150561.91
2019-04-11T02:54:07.920Z,150543.62
2019-04-11T02:56:36.872Z,150551.45
2019-04-11T02:59:05.716Z,150590.63
2019-04-11T03:01:36.118Z,150567.09
2019-04-11T03:04:06.550Z,150533.19
2019-04-11T03:06:35.497Z,150526.64
2019-04-11T03:09:07.052Z,150522.75
2019-04-11T03:11:36.347Z,150518.84
2019-04-11T03:14:05.112Z,150522.75
2019-04-11T03:16:46.751Z,150535.78
2019-04-11T03:19:19.803Z,150544.92
2019-04-11T03:21:38.910Z,150543.62
2019-04-11T03:24:08.257Z,150538.37
2019-04-11T03:26:35.807Z,150521.44
2019-04-11T03:29:06.861Z,150533.19
2019-04-11T03:37:13.555Z,150473.16
2019-04-11T03:39:27.735Z,150484.89
2019-04-11T03:41:56.632Z,150462.72
2019-04-11T03:44:18.814Z,150469.25
2019-04-11T03:46:52.423Z,150473.16
2019-04-11T03:49:24.038Z,150496.62
2019-04-11T03:51:43.046Z,150507.06
2019-04-11T03:54:11.705Z,150486.19
2019-04-11T03:56:41.408Z,150467.97
2019-04-11T03:59:14.843Z,150431.41
2019-04-11T04:01:42.432Z,150450.98
2019-04-11T04:04:13.277Z,150427.52
2019-04-11T04:06:43.436Z,150431.41
2019-04-11T04:09:13.093Z,150415.78
2019-04-11T04:11:46.953Z,150432.72
2019-04-11T04:14:28.360Z,150447.09
2019-04-11T04:17:04.082Z,150431.41
2019-04-11T04:19:35.329Z,150441.84
2019-04-11T04:22:08.884Z,150443.16
2019-04-11T04:24:40.023Z,150467.97
2019-04-11T04:27:09.928Z,150453.58
2019-04-11T04:29:38.735Z,150449.69
2019-04-11T04:32:08.245Z,150444.44
2019-04-11T04:34:37.331Z,150426.22
2019-04-11T04:37:07.915Z,150444.44
2019-04-11T04:39:37.728Z,150420.98
2019-04-11T04:42:16.824Z,150426.22
2019-04-11T04:44:38.064Z,150428.81
2019-04-11T04:47:18.093Z,150444.44
2019-04-11T04:49:38.709Z,150398.81
2019-04-11T04:52:09.448Z,150418.39
2019-04-11T04:54:38.610Z,150390.98
2019-04-11T04:57:09.280Z,150406.66
2019-04-11T04:59:39.560Z,150414.44
2019-04-11T05:02:10.527Z,150396.22
2019-04-11T05:04:40.352Z,150420.98
2019-04-11T05:07:20.148Z,150420.98
2019-04-11T05:09:50.136Z,150447.09
2019-04-11T05:12:20.372Z,150449.69
2019-04-11T05:14:49.833Z,150456.19
2019-04-11T05:17:19.258Z,150467.97
2019-04-11T05:19:48.784Z,150435.31
2019-04-11T05:22:17.336Z,150481.00
2019-04-11T05:24:45.823Z,150520.14
2019-04-11T05:27:14.630Z,150551.45
2019-04-11T05:29:43.936Z,150586.67
2019-04-11T05:32:13.361Z,150611.50
2019-04-11T05:34:41.901Z,150634.98
2019-04-11T05:37:11.056Z,150642.83
2019-04-11T05:39:39.861Z,150710.69
2019-04-11T05:42:09.432Z,150726.38
2019-04-11T05:44:40.261Z,150713.28
2019-04-11T05:47:08.994Z,150766.86
2019-04-11T05:49:41.611Z,150813.84
2019-04-11T05:52:12.175Z,150867.39
2019-04-11T05:54:46.423Z,150930.16
2019-04-11T05:57:13.286Z,150866.09
2019-04-11T05:59:45.968Z,150947.11
2019-04-11T06:02:24.975Z,150990.22
2019-04-11T06:05:02.727Z,151013.78
2019-04-11T06:07:50.710Z,151098.78
2019-04-11T06:10:21.929Z,151134.06
2019-04-11T06:13:08.318Z,151186.37
2019-04-11T06:15:40.849Z,151268.78
2019-04-11T06:18:32.489Z,151257.00
2019-04-11T06:21:13.690Z,151272.73
2019-04-11T06:23:47.764Z,151361.67
2019-04-11T06:26:22.917Z,151399.64
2019-04-11T06:28:55.306Z,151408.81
2019-04-11T06:31:42.334Z,151501.75
2019-04-11T06:34:11.333Z,151534.47
2019-04-11T06:36:50.213Z,151534.47
2019-04-11T06:39:27.269Z,151582.94
2019-04-11T06:41:57.624Z,151631.41
2019-04-11T06:44:34.224Z,151605.19
2019-04-11T06:47:13.459Z,151766.39
2019-04-11T06:49:46.771Z,151876.44
2019-04-11T06:52:16.828Z,151951.22
2019-04-11T06:54:47.504Z,151999.69
2019-04-11T06:57:21.621Z,151951.22
2019-04-11T06:59:53.011Z,152028.56
2019-04-11T07:02:24.513Z,152129.56
2019-04-11T07:04:54.324Z,152092.81
2019-04-11T07:07:28.441Z,152170.25
2019-04-11T07:09:57.541Z,152288.39
2019-04-11T07:12:28.619Z,152231.97
2019-04-11T07:15:17.126Z,152242.47
2019-04-11T07:18:07.081Z,152342.20
2019-04-11T07:20:45.571Z,152474.84
2019-04-11T07:23:32.975Z,152308.08
2019-04-11T07:26:04.482Z,152413.11
2019-04-11T07:28:40.169Z,152499.81
2019-04-11T07:31:27.687Z,152547.08
2019-04-11T07:34:08.781Z,152545.78
2019-04-11T07:36:55.864Z,152545.78
2019-04-11T07:39:26.103Z,152531.34
2019-04-11T07:41:56.272Z,152549.69
2019-04-11T07:44:27.522Z,152509.03
2019-04-11T07:47:14.659Z,152485.34
2019-04-11T07:49:44.944Z,152583.89
2019-04-11T07:52:15.581Z,152560.20
2019-04-11T07:54:45.496Z,152570.72
2019-04-11T07:57:26.203Z,152539.19
2019-04-11T07:59:57.764Z,152515.56
2019-04-11T08:02:29.034Z,152498.52
2019-04-11T08:05:16.027Z,152470.91
2019-04-11T08:07:52.317Z,152499.81
2019-04-11T08:10:22.832Z,152579.92
2019-04-11T08:12:51.996Z,152602.34
2019-04-11T08:15:22.169Z,152710.09
2019-04-11T08:17:50.661Z,152741.63
2019-04-11T08:20:37.500Z,152687.75
2019-04-11T08:23:05.989Z,152815.25
2019-04-11T08:25:53.577Z,152681.16
2019-04-11T08:28:22.201Z,152844.19
2019-04-11T08:30:52.420Z,152781.08
2019-04-11T08:33:22.573Z,152647.02
2019-04-11T08:36:09.360Z,152620.70
2019-04-11T08:38:37.969Z,152544.47
2019-04-11T08:41:15.478Z,152478.81
2019-04-11T08:43:44.148Z,152297.58
2019-04-11T08:46:20.636Z,152625.98
2019-04-11T08:48:59.501Z,152351.41
2019-04-11T08:51:32.195Z,152210.97
2019-04-11T08:54:05.046Z,152090.20
2019-04-11T08:56:34.771Z,152472.22
2019-04-11T08:59:31.373Z,152879.67
2019-04-11T09:02:00.420Z,153107.31
2019-04-11T09:04:48.169Z,153133.66
2019-04-11T09:07:19.189Z,152956.03
2019-04-11T09:10:07.429Z,152715.31
2019-04-11T09:12:38.389Z,152625.98
2019-04-11T09:15:19.143Z,152413.11
2019-04-11T09:17:58.889Z,152285.78
2019-04-11T09:20:23.959Z,152027.25
2019-04-11T09:22:55.385Z,152048.23
2019-04-11T09:25:41.974Z,151995.78
2019-04-11T09:28:13.291Z,151890.91
2019-04-11T09:30:54.991Z,151983.98
2019-04-11T09:33:41.367Z,152057.42
2019-04-11T09:36:28.975Z,152326.47
2019-04-11T09:39:17.131Z,152627.30
2019-04-11T09:42:03.056Z,153084.95
2019-04-11T09:44:49.152Z,153117.84
2019-04-11T09:47:38.339Z,152716.69
2019-04-11T09:50:26.905Z,152572.08
2019-04-11T09:52:57.962Z,152478.81
2019-04-11T09:55:44.344Z,152284.47
2019-04-11T09:58:29.570Z,152230.67
2019-04-11T10:01:02.098Z,152197.81
2019-04-11T10:03:32.213Z,152116.47
2019-04-11T10:06:21.590Z,152066.61
2019-04-11T10:09:01.737Z,152070.53
2019-04-11T10:11:38.078Z,152058.72
2019-04-11T10:14:09.315Z,151930.23
2019-04-11T10:16:58.194Z,151961.70
2019-04-11T10:19:31.753Z,151883.02
2019-04-11T10:22:13.703Z,151918.39
2019-04-11T10:24:50.462Z,151980.02
2019-04-11T10:27:30.862Z,152008.88
2019-04-11T10:30:17.526Z,151892.20
2019-04-11T10:32:50.385Z,151838.47
2019-04-11T10:35:20.499Z,151863.34
2019-04-11T10:37:50.144Z,151757.20
2019-04-11T10:40:36.473Z,151696.88
2019-04-11T10:43:05.147Z,151724.47
2019-04-11T10:45:36.389Z,151715.28
2019-04-11T10:48:05.550Z,151767.69
2019-04-11T10:50:50.843Z,151644.48
2019-04-11T10:53:19.503Z,151641.88
2019-04-11T10:56:08.506Z,151649.70
2019-04-11T10:58:38.817Z,151661.53
2019-04-11T11:01:09.458Z,151634.00
2019-04-11T11:03:45.639Z,151640.53
2019-04-11T11:06:19.729Z,151579.02
2019-04-11T11:08:50.087Z,151568.55
2019-04-11T11:11:24.065Z,151524.00
2019-04-11T11:14:10.289Z,151569.84
2019-04-11T11:16:44.388Z,151597.31
2019-04-11T11:19:40.270Z,151611.75
2019-04-11T11:21:49.944Z,151611.75
2019-04-11T11:24:31.888Z,151614.36
2019-04-11T11:27:02.940Z,151634.00
2019-04-11T11:29:32.249Z,151652.36
2019-04-11T11:32:03.009Z,151648.41
2019-04-11T11:34:36.733Z,151614.36
2019-04-11T11:37:16.398Z,151636.63
2019-04-11T11:40:08.837Z,151687.70
2019-04-11T11:42:48.002Z,151575.06
2019-04-11T11:45:19.441Z,151567.19
2019-04-11T11:47:55.620Z,151560.67
2019-04-11T11:50:31.857Z,151599.97
2019-04-11T11:53:17.047Z,151565.89
2019-04-11T11:55:45.908Z,151535.77
2019-04-11T11:58:19.942Z,151552.81
2019-04-11T12:00:53.557Z,151484.70
2019-04-11T12:03:35.093Z,151453.28
2019-04-11T12:06:05.461Z,151408.81
2019-04-11T12:08:51.861Z,151421.88
2019-04-11T12:11:22.002Z,151410.11
2019-04-11T12:14:09.701Z,151450.69
2019-04-11T12:17:01.947Z,151400.94
2019-04-11T12:19:42.106Z,151425.84
2019-04-11T12:22:02.252Z,151400.94
2019-04-11T12:24:41.256Z,151421.88
2019-04-11T12:27:18.462Z,151484.70
2019-04-11T12:29:57.928Z,151497.83
2019-04-11T12:32:28.454Z,151484.70
2019-04-11T12:35:15.684Z,151514.81
2019-04-11T12:37:53.366Z,151556.72
2019-04-11T12:40:39.708Z,151513.52
2019-04-11T12:43:09.850Z,151535.77
2019-04-11T12:45:39.949Z,151530.56
2019-04-11T12:48:11.941Z,151582.94
2019-04-11T12:50:56.306Z,151582.94
2019-04-11T12:53:24.844Z,151509.61
2019-04-11T12:55:57.985Z,151544.94
2019-04-11T12:58:42.721Z,151541.03
2019-04-11T13:01:26.273Z,151565.89
2019-04-11T13:03:59.158Z,151606.48
2019-04-11T13:06:35.608Z,151647.09
2019-04-11T13:09:21.892Z,151627.44
2019-04-11T13:11:51.995Z,151631.41
2019-04-11T13:14:24.971Z,151657.58
2019-04-11T13:16:55.090Z,151573.75
2019-04-11T13:19:41.101Z,151628.75
2019-04-11T13:22:11.282Z,151530.56
2019-04-11T13:24:47.469Z,151603.88
2019-04-11T13:27:23.241Z,151620.94
2019-04-11T13:30:09.541Z,151533.16
2019-04-11T13:32:48.435Z,151547.55
2019-04-11T13:35:18.564Z,151538.42
2019-04-11T13:38:03.665Z,151597.31
2019-04-11T13:43:23.832Z,151559.37
2019-04-11T13:46:00.111Z,151601.28
2019-04-11T13:48:48.711Z,151588.14
2019-04-11T13:51:19.406Z,151556.72
2019-04-11T13:54:05.745Z,151542.33
2019-04-11T13:56:37.038Z,151552.81
2019-04-11T13:59:10.329Z,151484.70
2019-04-11T14:01:40.457Z,151508.31
2019-04-11T14:04:13.329Z,151484.70
2019-04-11T14:06:41.818Z,151474.23
2019-04-11T14:09:20.878Z,151431.05
2019-04-11T14:11:49.432Z,151442.81
2019-04-11T14:14:19.605Z,151435.00
2019-04-11T14:16:49.953Z,151410.11
2019-04-11T14:19:29.011Z,151419.28
2019-04-11T14:21:57.642Z,151394.44
2019-04-11T14:24:30.194Z,151380.00
2019-04-11T14:27:00.328Z,151370.84
2019-04-11T14:29:46.610Z,151391.78
2019-04-11T14:32:19.216Z,151370.84
2019-04-11T14:34:52.189Z,151366.94
2019-04-11T14:37:22.364Z,151380.00
2019-04-11T14:39:52.485Z,151364.33
2019-04-11T14:42:34.529Z,151387.86
2019-04-11T14:45:05.920Z,151394.44
2019-04-11T14:47:39.818Z,151393.08
2019-04-11T14:50:11.220Z,151381.31
2019-04-11T14:52:48.087Z,151374.80
2019-04-11T14:55:18.994Z,151351.20
2019-04-11T14:57:53.790Z,151343.39
2019-04-11T15:00:25.080Z,151315.89
2019-04-11T15:03:13.779Z,151332.92
2019-04-11T15:05:46.544Z,151291.06
2019-04-11T15:08:19.352Z,151317.19
2019-04-11T15:10:52.158Z,151280.59
2019-04-11T15:13:22.279Z,151302.83
2019-04-11T15:15:58.236Z,151294.97
2019-04-11T15:18:27.448Z,151275.34
2019-04-11T15:21:09.533Z,151300.17
2019-04-11T15:23:39.848Z,151266.17
2019-04-11T15:26:18.731Z,151251.80
2019-04-11T15:28:54.973Z,151268.78
2019-04-11T15:31:25.080Z,151315.89
2019-04-11T15:34:07.165Z,151326.36
2019-04-11T15:36:39.799Z,151327.66
2019-04-11T15:39:12.498Z,151332.92
2019-04-11T15:41:42.613Z,151363.02
2019-04-11T15:44:18.810Z,151383.97
2019-04-11T15:46:47.856Z,151378.70
2019-04-11T15:52:00.161Z,151361.67
2019-04-11T15:54:34.801Z,151359.06
2019-04-11T15:57:05.948Z,151338.12
2019-04-11T15:59:39.097Z,151322.45
2019-04-11T16:02:25.722Z,151308.03
2019-04-11T16:04:56.120Z,151325.06
2019-04-11T16:07:28.936Z,151335.53
2019-04-11T16:09:58.900Z,151323.75
2019-04-11T16:12:37.843Z,151288.41
2019-04-11T16:15:11.038Z,151281.89
2019-04-11T16:17:42.380Z,151254.41
2019-04-11T16:20:12.200Z,151325.06
2019-04-11T16:22:48.109Z,151328.97
2019-04-11T16:25:20.754Z,151294.97
2019-04-11T16:28:08.157Z,151317.19
2019-04-11T16:30:44.180Z,151258.31
2019-04-11T16:33:30.339Z,151233.47
2019-04-11T16:36:03.198Z,151254.41
2019-04-11T16:38:42.068Z,151254.41
2019-04-11T16:41:17.926Z,151238.73
2019-04-11T16:43:54.671Z,151209.95
2019-04-11T16:46:24.573Z,151223.02
2019-04-11T16:48:55.614Z,151195.53
2019-04-11T16:51:30.834Z,151157.64
2019-04-11T16:53:53.052Z,151149.78
2019-04-11T16:56:21.519Z,151138.02
2019-04-11T16:58:50.283Z,151144.53
2019-04-11T17:01:20.754Z,151145.83
2019-04-11T17:03:49.156Z,151128.86
2019-04-11T17:06:31.337Z,151123.61
2019-04-11T17:09:03.970Z,151097.48
2019-04-11T17:11:32.421Z,151073.92
2019-04-11T17:14:00.971Z,151081.78
2019-04-11T17:16:30.695Z,151084.42
2019-04-11T17:18:59.964Z,151076.56
2019-04-11T17:21:28.424Z,151036.00
2019-04-11T17:23:56.941Z,151032.03
2019-04-11T17:26:25.385Z,151034.69
2019-04-11T17:28:54.655Z,150995.47
2019-04-11T17:31:25.750Z,150995.47
2019-04-11T17:33:53.563Z,150983.72
2019-04-11T17:36:22.034Z,150996.77
2019-04-11T17:38:50.525Z,151011.13
2019-04-11T17:41:19.007Z,150987.62
2019-04-11T17:43:51.382Z,150981.06
2019-04-11T17:46:17.816Z,150968.00
2019-04-11T17:48:46.291Z,150966.72
2019-04-11T17:51:14.808Z,150977.16
2019-04-11T17:53:43.299Z,150956.25
2019-04-11T17:56:11.772Z,150956.25
2019-04-11T17:58:40.254Z,150969.31
2019-04-11T18:01:09.144Z,150962.81
2019-04-11T18:03:37.589Z,150966.72
2019-04-11T18:06:06.111Z,150953.66
2019-04-11T18:08:34.773Z,150947.11
2019-04-11T18:11:03.317Z,150958.86
2019-04-11T18:13:31.821Z,150957.56
2019-04-11T18:16:01.154Z,150939.25
2019-04-11T18:18:30.334Z,150930.16
2019-04-11T18:20:58.848Z,150940.59
2019-04-11T18:23:27.328Z,150935.34
2019-04-11T18:25:55.824Z,150927.50
2019-04-11T18:28:24.319Z,150940.59
2019-04-11T18:30:54.016Z,150927.50
2019-04-11T18:33:23.217Z,150939.25
2019-04-11T18:35:51.714Z,150945.81
2019-04-11T18:38:20.208Z,150893.55
2019-04-11T18:40:48.675Z,150880.48
2019-04-11T18:43:17.228Z,150885.69
2019-04-11T18:45:45.705Z,150896.14
2019-04-11T18:48:14.166Z,150896.14
2019-04-11T18:50:42.732Z,150886.98
2019-04-11T18:53:11.212Z,150877.84
2019-04-11T18:55:39.716Z,150910.55
2019-04-11T18:58:08.185Z,150902.69
2019-04-11T19:00:38.333Z,150877.84
2019-04-11T19:03:08.119Z,150881.80
2019-04-11T19:05:37.314Z,150855.64
2019-04-11T19:08:05.801Z,150868.75
2019-04-11T19:10:34.425Z,150872.64
2019-04-11T19:13:02.963Z,150870.03
2019-04-11T19:15:31.480Z,150881.80
2019-04-11T19:18:06.087Z,150876.53
2019-04-11T19:20:30.263Z,150877.84
2019-04-11T19:22:59.894Z,150881.80
2019-04-11T19:25:28.376Z,150872.64
2019-04-11T19:27:57.362Z,150853.05
2019-04-11T19:30:26.385Z,150838.69
2019-04-11T19:32:55.547Z,150841.28
2019-04-11T19:35:24.042Z,150837.39
2019-04-11T19:37:52.553Z,150820.39
2019-04-11T19:40:21.058Z,150820.39
2019-04-11T19:42:49.836Z,150807.34
2019-04-11T19:45:41.732Z,150821.69
2019-04-11T19:48:10.537Z,150799.50
2019-04-11T19:50:44.922Z,150802.09
2019-04-11T19:53:10.818Z,150807.34
2019-04-11T19:55:46.848Z,150807.34
2019-04-11T19:58:18.149Z,150813.84
2019-04-11T20:00:52.796Z,150811.25
2019-04-11T20:03:18.066Z,150808.66
2019-04-11T20:05:46.726Z,150807.34
2019-04-11T20:08:15.308Z,150820.39
2019-04-11T20:10:43.928Z,150815.14
2019-04-11T20:13:12.572Z,150828.25
2019-04-11T20:15:42.494Z,150800.80
2019-04-11T20:18:11.452Z,150772.06
2019-04-11T20:20:39.965Z,150791.66
2019-04-11T20:23:11.035Z,150778.61
2019-04-11T20:25:38.787Z,150809.94
2019-04-11T20:28:07.353Z,150781.20
2019-04-11T20:30:35.823Z,150787.75
2019-04-11T20:33:04.705Z,150776.00
2019-04-11T20:35:33.193Z,150781.20
2019-04-11T20:38:01.699Z,150789.05
2019-04-11T20:40:30.197Z,150774.66
2019-04-11T20:42:58.717Z,150760.31
2019-04-11T20:45:29.373Z,150762.91
2019-04-11T20:48:00.203Z,150773.34
2019-04-11T20:50:28.181Z,150753.75
2019-04-11T20:52:59.273Z,150753.75
2019-04-11T20:55:26.874Z,150740.72
2019-04-11T20:57:55.361Z,150765.56
2019-04-11T21:00:23.900Z,150739.42
2019-04-11T21:02:52.377Z,150736.81
2019-04-11T21:05:20.887Z,150756.41
2019-04-11T21:07:49.430Z,150744.66
2019-04-11T21:10:17.911Z,150732.87
2019-04-11T21:12:46.417Z,150731.56
2019-04-11T21:15:14.875Z,150744.66
2019-04-11T21:17:43.366Z,150751.16
2019-04-11T21:20:12.274Z,150756.41
2019-04-11T21:22:40.746Z,150764.20
2019-04-11T21:25:09.875Z,150736.81
2019-04-11T21:27:38.400Z,150742.02
2019-04-11T21:30:07.553Z,150744.66
2019-04-11T21:32:35.998Z,150744.66
2019-04-11T21:35:06.238Z,150749.86
2019-04-11T21:37:36.713Z,150748.56
2019-04-11T21:40:06.909Z,150757.70
2019-04-11T21:42:36.086Z,150717.22
2019-04-11T21:45:06.949Z,150739.42
2019-04-11T21:47:37.177Z,150739.42
2019-04-11T21:50:10.138Z,150739.42
2019-04-11T21:52:43.382Z,150730.28
2019-04-11T21:55:10.013Z,150715.94
2019-04-11T21:57:38.568Z,150747.27
2019-04-11T22:00:16.187Z,150735.52
2019-04-11T22:02:44.944Z,150740.72
2019-04-11T22:05:15.074Z,150734.22
2019-04-11T22:07:43.659Z,150728.97
2019-04-11T22:10:13.094Z,150714.63
2019-04-11T22:12:41.663Z,150715.94
2019-04-11T22:15:11.933Z,150705.48
2019-04-11T22:17:42.920Z,150715.94
2019-04-11T22:20:11.344Z,150674.16
2019-04-11T22:22:39.939Z,150679.34
2019-04-11T22:25:08.613Z,150680.66
2019-04-11T22:27:37.273Z,150674.16
2019-04-11T22:30:07.695Z,150674.16
2019-04-11T22:32:36.428Z,150676.75
2019-04-11T22:35:06.232Z,150655.86
2019-04-11T22:37:34.914Z,150663.72
2019-04-11T22:40:04.846Z,150666.31
2019-04-11T22:42:33.736Z,150666.31
2019-04-11T22:45:02.260Z,150637.58
2019-04-11T22:47:30.827Z,150666.31
2019-04-11T22:50:01.607Z,150666.31
2019-04-11T22:52:31.249Z,150661.06
2019-04-11T22:54:59.777Z,150651.97
2019-04-11T22:57:28.613Z,150661.06
2019-04-11T22:59:57.162Z,150679.34
2019-04-11T23:02:33.455Z,150649.31
2019-04-11T23:05:01.992Z,150666.31
2019-04-11T23:07:30.553Z,150655.86
2019-04-11T23:09:59.115Z,150658.47
2019-04-11T23:12:27.788Z,150659.77
2019-04-11T23:14:56.358Z,150661.06
2019-04-11T23:17:24.854Z,150644.13
2019-04-11T23:19:53.448Z,150646.72
2019-04-11T23:22:25.284Z,150653.27
2019-04-11T23:24:53.822Z,150633.69
2019-04-11T23:27:22.367Z,150640.19
2019-04-11T23:29:50.910Z,150636.28
2019-04-11T23:32:21.240Z,150629.73
2019-04-11T23:34:52.603Z,150631.03
2019-04-11T23:37:21.153Z,150650.63
2019-04-11T23:39:51.089Z,150679.34
2019-04-11T23:42:20.265Z,150645.42
2019-04-11T23:44:50.574Z,150646.72
2019-04-11T23:47:20.083Z,150642.83
2019-04-11T23:49:49.522Z,150632.38
2019-04-11T23:52:17.980Z,150623.25
2019-04-11T23:54:46.639Z,150614.09
2019-04-11T23:57:15.102Z,150619.30
2019-04-11T23:59:43.627Z,150632.38
